createdAt,value
2023-01-06T00:00:16.677Z,9.49
2023-01-06T00:02:44.661Z,9.89
2023-01-06T00:05:10.838Z,9.91
2023-01-06T00:07:36.924Z,9.41
2023-01-06T00:10:03.210Z,9.93
2023-01-06T00:12:29.245Z,9.84
2023-01-06T00:14:55.403Z,9.66
2023-01-06T00:17:21.688Z,9.73
2023-01-06T00:19:47.778Z,9.59
2023-01-06T00:22:13.817Z,9.59
2023-01-06T00:24:39.875Z,8.13
2023-01-06T00:27:05.980Z,9.56
2023-01-06T00:29:32.118Z,9.73
2023-01-06T00:31:59.895Z,9.59
2023-01-06T00:34:26.810Z,9.44
2023-01-06T00:36:52.885Z,9.32
2023-01-06T00:39:18.923Z,9.52
2023-01-06T00:42:02.943Z,9.64
2023-01-06T00:44:33.008Z,9.57
2023-01-06T00:46:59.190Z,9.78
2023-01-06T00:49:25.631Z,9.37
2023-01-06T00:51:51.848Z,9.41
2023-01-06T00:54:18.287Z,9.72
2023-01-06T00:56:46.535Z,9.72
2023-01-06T00:59:14.499Z,9.67
2023-01-06T01:01:41.530Z,9.78
2023-01-06T01:04:08.374Z,9.77
2023-01-06T01:06:35.774Z,9.96
2023-01-06T01:09:02.254Z,9.78
2023-01-06T01:11:47.572Z,10.19
2023-01-06T01:14:15.418Z,10.07
2023-01-06T01:16:41.548Z,9.99
2023-01-06T01:19:07.993Z,10.00
2023-01-06T01:21:34.087Z,9.37
2023-01-06T01:24:00.408Z,10.21
2023-01-06T01:26:26.504Z,9.99
2023-01-06T01:28:52.622Z,9.87
2023-01-06T01:31:19.764Z,9.69
2023-01-06T01:33:45.895Z,10.00
2023-01-06T01:36:14.156Z,9.88
2023-01-06T01:38:40.349Z,10.05
2023-01-06T01:41:06.421Z,10.10
2023-01-06T01:43:52.383Z,10.01
2023-01-06T01:46:25.093Z,10.16
2023-01-06T01:48:52.310Z,9.55
2023-01-06T01:51:23.397Z,9.98
2023-01-06T01:53:52.296Z,5.69
2023-01-06T01:56:28.617Z,10.08
2023-01-06T01:59:04.223Z,9.95
2023-01-06T02:01:31.076Z,10.19
2023-01-06T02:03:57.955Z,9.58
2023-01-06T02:06:25.186Z,10.24
2023-01-06T02:09:06.486Z,10.05
2023-01-06T02:11:33.689Z,10.27
2023-01-06T02:17:31.859Z,10.17
2023-01-06T02:20:35.732Z,10.26
2023-01-06T02:23:22.531Z,10.30
2023-01-06T02:25:57.562Z,10.26
2023-01-06T02:29:01.305Z,10.34
2023-01-06T02:32:01.291Z,10.30
2023-01-06T02:34:43.100Z,10.36
2023-01-06T02:37:41.655Z,10.32
2023-01-06T02:40:44.665Z,10.34
2023-01-06T02:43:22.692Z,10.22
2023-01-06T02:46:19.865Z,10.30
2023-01-06T02:48:53.510Z,10.30
2023-01-06T02:51:41.253Z,10.43
2023-01-06T02:54:27.669Z,10.32
2023-01-06T02:57:00.313Z,9.80
2023-01-06T02:59:30.450Z,10.29
2023-01-06T03:01:57.580Z,9.86
2023-01-06T03:04:29.994Z,10.22
2023-01-06T03:06:58.402Z,10.18
2023-01-06T03:09:29.071Z,10.00
2023-01-06T03:11:55.139Z,10.03
2023-01-06T03:14:23.895Z,10.00
2023-01-06T03:16:50.103Z,10.23
2023-01-06T03:19:16.393Z,10.17
2023-01-06T03:21:43.943Z,9.71
2023-01-06T03:24:10.308Z,10.22
2023-01-06T03:26:37.977Z,10.23
2023-01-06T03:29:08.754Z,10.27
2023-01-06T03:31:39.703Z,10.39
2023-01-06T03:34:37.406Z,10.47
2023-01-06T03:37:12.278Z,10.49
2023-01-06T03:39:48.116Z,10.56
2023-01-06T03:42:59.947Z,10.39
2023-01-06T03:45:35.401Z,10.58
2023-01-06T03:48:17.702Z,10.55
2023-01-06T03:51:10.858Z,10.54
2023-01-06T03:53:56.841Z,10.15
2023-01-06T03:56:45.875Z,10.64
2023-01-06T03:59:16.751Z,10.54
2023-01-06T04:01:43.272Z,10.53
2023-01-06T04:04:09.555Z,9.92
2023-01-06T04:06:35.664Z,10.44
2023-01-06T04:09:01.837Z,10.50
2023-01-06T04:11:46.499Z,10.51
2023-01-06T04:14:12.691Z,10.42
2023-01-06T04:16:38.747Z,10.65
2023-01-06T04:19:12.453Z,10.39
2023-01-06T04:21:38.550Z,10.68
2023-01-06T04:24:04.898Z,10.82
2023-01-06T04:26:33.142Z,10.77
2023-01-06T04:29:00.319Z,10.82
2023-01-06T04:31:26.401Z,10.60
2023-01-06T04:33:52.472Z,10.35
2023-01-06T04:36:19.666Z,10.74
2023-01-06T04:38:46.204Z,10.43
2023-01-06T04:41:12.283Z,10.75
2023-01-06T04:43:38.370Z,10.86
2023-01-06T04:46:04.477Z,10.50
2023-01-06T04:48:30.568Z,10.91
2023-01-06T04:51:05.100Z,10.79
2023-01-06T04:53:39.700Z,10.70
2023-01-06T04:56:08.428Z,10.74
2023-01-06T04:58:34.572Z,10.75
2023-01-06T05:01:08.397Z,10.81
2023-01-06T05:03:35.388Z,10.28
2023-01-06T05:06:03.192Z,10.85
2023-01-06T05:08:30.705Z,10.44
2023-01-06T05:11:01.314Z,11.00
2023-01-06T05:13:28.483Z,10.91
2023-01-06T05:15:54.611Z,10.96
2023-01-06T05:18:20.690Z,11.03
2023-01-06T05:20:55.926Z,10.97
2023-01-06T05:23:22.110Z,10.28
2023-01-06T05:25:51.053Z,10.72
2023-01-06T05:28:17.848Z,10.44
2023-01-06T05:30:44.046Z,10.37
2023-01-06T05:33:10.171Z,9.55
2023-01-06T05:35:36.304Z,10.70
2023-01-06T05:38:02.444Z,9.83
2023-01-06T05:40:28.722Z,10.51
2023-01-06T05:42:55.643Z,10.63
2023-01-06T05:45:23.094Z,10.49
2023-01-06T05:47:49.146Z,10.73
2023-01-06T05:50:15.500Z,9.64
2023-01-06T05:52:41.622Z,10.92
2023-01-06T05:55:08.499Z,10.87
2023-01-06T05:57:35.781Z,10.74
2023-01-06T06:00:04.711Z,10.92
2023-01-06T06:02:30.931Z,10.91
2023-01-06T06:04:57.123Z,10.77
2023-01-06T06:07:23.186Z,10.84
2023-01-06T06:09:49.328Z,10.93
2023-01-06T06:12:16.651Z,10.84
2023-01-06T06:14:42.701Z,10.77
2023-01-06T06:17:08.728Z,10.55
2023-01-06T06:19:34.815Z,10.44
2023-01-06T06:22:00.907Z,10.67
2023-01-06T06:24:26.975Z,10.70
2023-01-06T06:26:53.128Z,10.63
2023-01-06T06:29:19.182Z,10.21
2023-01-06T06:31:45.283Z,10.53
2023-01-06T06:34:12.978Z,10.65
2023-01-06T06:36:39.037Z,10.53
2023-01-06T06:39:05.131Z,10.68
2023-01-06T06:41:32.533Z,10.73
2023-01-06T06:43:58.643Z,10.74
2023-01-06T06:46:24.757Z,10.62
2023-01-06T06:48:50.923Z,10.50
2023-01-06T06:51:20.211Z,10.58
2023-01-06T06:53:46.922Z,10.62
2023-01-06T06:56:16.702Z,10.75
2023-01-06T06:58:42.824Z,10.59
2023-01-06T07:01:12.064Z,10.77
2023-01-06T07:03:38.531Z,10.67
2023-01-06T07:06:07.239Z,10.84
2023-01-06T07:08:33.589Z,10.63
2023-01-06T07:11:00.286Z,10.79
2023-01-06T07:13:26.973Z,10.66
2023-01-06T07:15:53.494Z,10.67
2023-01-06T07:18:19.775Z,10.65
2023-01-06T07:20:48.169Z,10.70
2023-01-06T07:23:14.397Z,10.24
2023-01-06T07:25:40.516Z,10.29
2023-01-06T07:28:08.106Z,10.26
2023-01-06T07:30:34.934Z,9.96
2023-01-06T07:33:01.507Z,10.31
2023-01-06T07:35:27.720Z,10.57
2023-01-06T07:37:53.817Z,10.47
2023-01-06T07:40:20.219Z,10.24
2023-01-06T07:42:47.122Z,9.24
2023-01-06T07:45:13.621Z,10.48
2023-01-06T07:47:39.679Z,10.47
2023-01-06T07:50:06.078Z,10.41
2023-01-06T07:52:32.369Z,10.47
2023-01-06T07:54:58.876Z,10.35
2023-01-06T07:57:26.157Z,10.27
2023-01-06T07:59:52.280Z,10.47
2023-01-06T08:02:18.417Z,10.49
2023-01-06T08:04:44.470Z,10.45
2023-01-06T08:07:12.321Z,10.62
2023-01-06T08:09:38.493Z,10.53
2023-01-06T08:12:04.808Z,10.49
2023-01-06T08:14:30.859Z,10.45
2023-01-06T08:16:56.890Z,10.50
2023-01-06T08:19:22.942Z,9.64
2023-01-06T08:21:49.012Z,10.47
2023-01-06T08:24:15.294Z,10.30
2023-01-06T08:26:41.359Z,10.37
2023-01-06T08:29:07.888Z,9.88
2023-01-06T08:31:34.038Z,10.29
2023-01-06T08:34:00.188Z,10.33
2023-01-06T08:36:26.814Z,9.26
2023-01-06T08:38:53.162Z,10.26
2023-01-06T08:41:19.899Z,10.41
2023-01-06T08:43:46.647Z,10.54
2023-01-06T08:46:16.849Z,10.57
2023-01-06T08:48:43.178Z,10.68
2023-01-06T08:51:16.009Z,10.10
2023-01-06T08:53:43.284Z,10.60
2023-01-06T08:56:24.183Z,10.61
2023-01-06T08:58:52.406Z,10.57
2023-01-06T09:01:21.092Z,10.47
2023-01-06T09:03:47.346Z,10.40
2023-01-06T09:06:14.582Z,10.47
2023-01-06T09:08:40.892Z,10.23
2023-01-06T09:11:08.380Z,10.67
2023-01-06T09:13:35.082Z,10.71
2023-01-06T09:16:05.167Z,10.85
2023-01-06T09:18:31.227Z,10.68
2023-01-06T09:20:57.262Z,10.65
2023-01-06T09:23:23.342Z,10.78
2023-01-06T09:25:49.905Z,10.87
2023-01-06T09:28:16.331Z,10.59
2023-01-06T09:30:42.561Z,10.79
2023-01-06T09:33:08.658Z,10.82
2023-01-06T09:35:34.704Z,10.82
2023-01-06T09:38:00.767Z,9.99
2023-01-06T09:40:39.827Z,9.26
2023-01-06T09:43:30.850Z,10.56
2023-01-06T09:46:00.913Z,10.85
2023-01-06T09:48:32.755Z,10.71
2023-01-06T09:51:01.205Z,10.65
2023-01-06T09:53:37.158Z,9.87
2023-01-06T09:56:05.725Z,10.68
2023-01-06T09:58:51.682Z,10.62
2023-01-06T10:01:23.918Z,11.00
2023-01-06T10:03:50.135Z,9.58
2023-01-06T10:06:28.481Z,10.98
2023-01-06T10:09:16.223Z,10.93
2023-01-06T10:11:51.294Z,10.97
2023-01-06T10:14:38.387Z,10.73
2023-01-06T10:17:28.583Z,10.79
2023-01-06T10:20:29.746Z,10.96
2023-01-06T10:23:03.724Z,10.98
2023-01-06T10:25:34.887Z,11.00
2023-01-06T10:28:24.952Z,10.77
2023-01-06T10:30:53.274Z,10.84
2023-01-06T10:33:29.300Z,10.87
2023-01-06T10:35:56.331Z,11.04
2023-01-06T10:38:36.809Z,10.64
2023-01-06T10:41:41.103Z,11.06
2023-01-06T10:44:10.230Z,11.08
2023-01-06T10:46:36.649Z,11.04
2023-01-06T10:49:04.165Z,11.11
2023-01-06T10:51:34.466Z,11.27
2023-01-06T10:54:09.759Z,11.37
2023-01-06T10:56:37.407Z,11.30
2023-01-06T10:59:10.359Z,11.10
2023-01-06T11:01:49.449Z,11.27
2023-01-06T11:04:16.687Z,11.28
2023-01-06T11:06:44.759Z,11.21
2023-01-06T11:09:40.465Z,11.20
2023-01-06T11:12:12.240Z,11.09
2023-01-06T11:14:38.742Z,11.21
2023-01-06T11:17:14.599Z,11.18
2023-01-06T11:19:45.215Z,11.25
2023-01-06T11:25:29.572Z,11.19
2023-01-06T11:28:08.814Z,11.34
2023-01-06T11:30:55.448Z,11.41
2023-01-06T11:33:26.416Z,11.33
2023-01-06T11:35:53.111Z,11.29
2023-01-06T11:38:20.608Z,11.23
2023-01-06T11:40:48.634Z,11.35
2023-01-06T11:43:17.113Z,10.42
2023-01-06T11:45:43.276Z,11.34
2023-01-06T11:48:33.304Z,11.46
2023-01-06T11:51:02.016Z,11.44
2023-01-06T11:53:32.775Z,11.42
2023-01-06T11:56:01.919Z,11.46
2023-01-06T11:58:55.439Z,11.41
2023-01-06T12:01:41.672Z,11.40
2023-01-06T12:04:21.914Z,11.36
2023-01-06T12:06:49.595Z,11.53
2023-01-06T12:09:26.204Z,10.92
2023-01-06T12:11:55.723Z,11.42
2023-01-06T12:14:28.856Z,11.40
2023-01-06T12:17:03.753Z,11.53
2023-01-06T12:19:32.074Z,11.54
2023-01-06T12:21:58.762Z,9.87
2023-01-06T12:24:25.123Z,11.40
2023-01-06T12:26:51.755Z,11.48
2023-01-06T12:29:19.579Z,11.42
2023-01-06T12:32:21.454Z,11.39
2023-01-06T12:34:49.479Z,11.32
2023-01-06T12:37:22.068Z,11.38
2023-01-06T12:40:02.489Z,11.24
2023-01-06T12:42:48.729Z,11.40
2023-01-06T12:45:23.246Z,11.18
2023-01-06T12:47:54.295Z,11.13
2023-01-06T12:50:35.596Z,11.16
2023-01-06T12:53:19.923Z,10.92
2023-01-06T12:55:55.549Z,11.28
2023-01-06T12:58:24.391Z,11.08
2023-01-06T13:00:50.479Z,11.33
2023-01-06T13:03:19.540Z,11.45
2023-01-06T13:06:00.738Z,11.34
2023-01-06T13:08:48.114Z,11.14
2023-01-06T13:11:40.567Z,11.22
2023-01-06T13:14:20.954Z,11.15
2023-01-06T13:17:05.475Z,11.23
2023-01-06T13:19:45.638Z,11.20
2023-01-06T13:22:26.312Z,10.93
2023-01-06T13:25:21.657Z,11.11
2023-01-06T13:27:50.707Z,11.15
2023-01-06T13:30:38.546Z,11.23
2023-01-06T13:33:19.605Z,11.25
2023-01-06T13:35:48.679Z,11.12
2023-01-06T13:38:33.327Z,11.10
2023-01-06T13:41:02.153Z,11.20
2023-01-06T13:43:29.510Z,11.43
2023-01-06T13:45:59.131Z,11.21
2023-01-06T13:48:31.876Z,11.41
2023-01-06T13:50:59.493Z,11.57
2023-01-06T13:53:26.690Z,11.57
2023-01-06T13:56:22.604Z,11.51
2023-01-06T13:58:50.997Z,11.64
2023-01-06T14:01:17.209Z,11.46
2023-01-06T14:03:44.048Z,11.65
2023-01-06T14:06:11.055Z,11.62
2023-01-06T14:08:39.946Z,11.67
2023-01-06T14:11:38.507Z,11.57
2023-01-06T14:14:06.922Z,11.50
2023-01-06T14:16:41.029Z,11.47
2023-01-06T14:19:12.465Z,11.55
2023-01-06T14:21:39.114Z,11.50
2023-01-06T14:24:07.229Z,11.25
2023-01-06T14:26:50.605Z,11.75
2023-01-06T14:29:38.603Z,11.62
2023-01-06T14:32:06.322Z,11.63
2023-01-06T14:34:34.573Z,11.70
2023-01-06T14:37:02.091Z,11.09
2023-01-06T14:39:29.523Z,10.74
2023-01-06T14:42:09.101Z,11.60
2023-01-06T14:44:46.918Z,11.30
2023-01-06T14:47:17.742Z,11.22
2023-01-06T14:49:49.195Z,11.49
2023-01-06T14:52:17.537Z,11.53
2023-01-06T14:54:44.643Z,11.45
2023-01-06T14:57:35.488Z,11.38
2023-01-06T15:00:03.938Z,11.53
2023-01-06T15:02:31.365Z,11.43
2023-01-06T15:04:58.623Z,11.39
2023-01-06T15:07:24.800Z,10.82
2023-01-06T15:09:51.322Z,10.82
2023-01-06T15:12:29.857Z,11.35
2023-01-06T15:14:56.379Z,11.28
2023-01-06T15:17:22.782Z,11.26
2023-01-06T15:19:51.421Z,11.35
2023-01-06T15:22:23.380Z,11.23
2023-01-06T15:24:49.567Z,11.16
2023-01-06T15:27:17.092Z,11.19
2023-01-06T15:29:54.482Z,10.93
2023-01-06T15:32:21.818Z,11.07
2023-01-06T15:34:49.873Z,11.14
2023-01-06T15:37:22.233Z,10.92
2023-01-06T15:39:48.762Z,10.93
2023-01-06T15:42:17.621Z,9.81
2023-01-06T15:45:02.723Z,11.10
2023-01-06T15:47:32.574Z,11.02
2023-01-06T15:50:01.740Z,11.13
2023-01-06T15:52:48.429Z,11.15
2023-01-06T15:55:22.642Z,11.19
2023-01-06T15:57:55.876Z,11.20
2023-01-06T16:00:24.917Z,11.14
2023-01-06T16:02:51.113Z,11.09
2023-01-06T16:05:40.452Z,11.16
2023-01-06T16:08:15.497Z,11.19
2023-01-06T16:10:43.259Z,11.22
2023-01-06T16:13:28.951Z,11.16
2023-01-06T16:15:59.605Z,10.96
2023-01-06T16:18:36.557Z,10.84
2023-01-06T16:21:21.094Z,10.97
2023-01-06T16:23:55.502Z,10.96
2023-01-06T16:26:24.293Z,10.98
2023-01-06T16:28:56.082Z,10.95
2023-01-06T16:31:40.412Z,10.96
2023-01-06T16:34:21.762Z,10.86
2023-01-06T16:36:49.013Z,10.79
2023-01-06T16:39:15.135Z,10.81
2023-01-06T16:42:01.191Z,10.77
2023-01-06T16:44:31.139Z,10.82
2023-01-06T16:46:57.930Z,10.88
2023-01-06T16:49:24.203Z,10.70
2023-01-06T16:51:50.485Z,5.14
2023-01-06T16:54:17.997Z,10.45
2023-01-06T16:56:45.162Z,10.85
2023-01-06T16:59:16.355Z,10.56
2023-01-06T17:01:47.313Z,9.13
2023-01-06T17:04:14.425Z,10.58
2023-01-06T17:06:42.442Z,10.44
2023-01-06T17:09:28.160Z,10.30
2023-01-06T17:11:54.614Z,10.24
2023-01-06T17:14:22.136Z,10.32
2023-01-06T17:16:49.731Z,10.73
2023-01-06T17:19:26.064Z,9.49
2023-01-06T17:22:00.352Z,10.93
2023-01-06T17:24:28.660Z,10.85
2023-01-06T17:26:57.630Z,10.69
2023-01-06T17:29:26.713Z,10.30
2023-01-06T17:31:55.784Z,11.51
2023-01-06T17:34:28.751Z,10.79
2023-01-06T17:36:55.570Z,10.67
2023-01-06T17:39:28.423Z,10.89
2023-01-06T17:42:01.537Z,10.94
2023-01-06T17:44:34.977Z,10.87
2023-01-06T17:47:01.287Z,10.66
2023-01-06T17:49:32.552Z,10.74
2023-01-06T17:52:01.897Z,10.41
2023-01-06T17:54:46.564Z,10.81
2023-01-06T17:57:15.294Z,10.76
2023-01-06T17:59:42.353Z,10.58
2023-01-06T18:02:41.456Z,10.49
2023-01-06T18:05:32.529Z,10.51
2023-01-06T18:08:11.658Z,9.33
2023-01-06T18:10:41.359Z,10.28
2023-01-06T18:13:36.086Z,10.36
2023-01-06T18:16:06.417Z,10.35
2023-01-06T18:18:36.389Z,10.42
2023-01-06T18:21:33.880Z,10.09
2023-01-06T18:24:10.975Z,10.24
2023-01-06T18:26:40.039Z,9.92
2023-01-06T18:29:14.753Z,10.21
2023-01-06T18:31:41.641Z,10.19
2023-01-06T18:34:30.058Z,10.32
2023-01-06T18:36:58.164Z,10.41
2023-01-06T18:39:27.699Z,9.93
2023-01-06T18:42:02.042Z,10.33
2023-01-06T18:44:28.310Z,10.29
2023-01-06T18:46:54.342Z,10.20
2023-01-06T18:49:20.751Z,10.18
2023-01-06T18:51:46.830Z,10.20
2023-01-06T18:54:17.772Z,10.30
2023-01-06T18:56:44.026Z,10.38
2023-01-06T18:59:16.632Z,10.38
2023-01-06T19:01:48.467Z,8.99
2023-01-06T19:04:28.275Z,10.03
2023-01-06T19:07:09.471Z,10.20
2023-01-06T19:09:39.357Z,10.28
2023-01-06T19:12:08.090Z,10.27
2023-01-06T19:14:48.310Z,10.29
2023-01-06T19:17:26.976Z,10.28
2023-01-06T19:19:53.304Z,10.28
2023-01-06T19:22:27.712Z,10.31
2023-01-06T19:25:16.445Z,10.34
2023-01-06T19:27:50.296Z,10.32
2023-01-06T19:30:16.361Z,10.35
2023-01-06T19:32:42.963Z,10.35
2023-01-06T19:35:18.291Z,10.19
2023-01-06T19:37:44.364Z,9.94
2023-01-06T19:40:25.422Z,10.25
2023-01-06T19:42:53.807Z,10.23
2023-01-06T19:45:30.587Z,10.22
2023-01-06T19:47:59.712Z,10.10
2023-01-06T19:50:25.923Z,9.91
2023-01-06T19:52:57.736Z,10.33
2023-01-06T19:55:28.820Z,10.10
2023-01-06T19:57:57.456Z,10.30
2023-01-06T20:00:31.617Z,10.29
2023-01-06T20:03:00.900Z,10.23
2023-01-06T20:05:27.588Z,9.13
2023-01-06T20:07:54.126Z,9.72
2023-01-06T20:10:20.398Z,10.43
2023-01-06T20:12:47.915Z,10.39
2023-01-06T20:15:14.473Z,10.26
2023-01-06T20:17:40.563Z,10.16
2023-01-06T20:20:07.163Z,9.99
2023-01-06T20:22:33.229Z,10.12
2023-01-06T20:24:59.278Z,9.09
2023-01-06T20:27:25.444Z,10.05
2023-01-06T20:29:52.168Z,9.96
2023-01-06T20:32:18.926Z,10.22
2023-01-06T20:34:44.984Z,10.24
2023-01-06T20:37:11.007Z,10.36
2023-01-06T20:39:37.284Z,10.31
2023-01-06T20:42:04.831Z,10.35
2023-01-06T20:44:30.973Z,10.26
2023-01-06T20:46:57.022Z,10.00
2023-01-06T20:49:23.053Z,10.19
2023-01-06T20:51:49.121Z,10.23
2023-01-06T20:54:15.195Z,10.26
2023-01-06T20:56:41.241Z,10.34
2023-01-06T20:59:07.263Z,10.32
2023-01-06T21:01:33.540Z,10.41
2023-01-06T21:03:59.832Z,10.23
2023-01-06T21:06:25.920Z,10.27
2023-01-06T21:08:51.970Z,8.87
2023-01-06T21:11:18.038Z,10.18
2023-01-06T21:13:44.088Z,10.13
2023-01-06T21:16:10.134Z,9.90
2023-01-06T21:18:36.286Z,9.97
2023-01-06T21:21:02.445Z,10.11
2023-01-06T21:23:28.587Z,10.27
2023-01-06T21:25:54.676Z,9.08
2023-01-06T21:28:21.043Z,10.21
2023-01-06T21:30:47.271Z,9.73
2023-01-06T21:33:13.517Z,8.85
2023-01-06T21:35:39.604Z,10.29
2023-01-06T21:38:05.702Z,10.39
2023-01-06T21:40:31.845Z,10.43
2023-01-06T21:43:10.135Z,10.26
2023-01-06T21:45:40.525Z,10.28
2023-01-06T21:48:07.835Z,10.27
2023-01-06T21:50:38.991Z,9.96
2023-01-06T21:53:05.947Z,10.31
2023-01-06T21:55:32.164Z,10.26
2023-01-06T21:57:58.280Z,10.23
2023-01-06T22:00:24.568Z,10.00
2023-01-06T22:02:52.340Z,10.02
2023-01-06T22:05:18.811Z,10.25
2023-01-06T22:07:47.768Z,10.20
2023-01-06T22:10:18.035Z,9.87
2023-01-06T22:12:45.161Z,10.21
2023-01-06T22:15:12.531Z,10.14
2023-01-06T22:17:38.844Z,9.96
2023-01-06T22:20:05.652Z,10.28
2023-01-06T22:22:33.038Z,9.91
2023-01-06T22:25:00.004Z,10.12
2023-01-06T22:27:26.064Z,10.14
2023-01-06T22:29:52.148Z,10.22
2023-01-06T22:32:18.622Z,10.17
2023-01-06T22:34:44.675Z,10.18
2023-01-06T22:37:10.710Z,10.23
2023-01-06T22:39:36.928Z,10.11
2023-01-06T22:42:03.186Z,9.96
2023-01-06T22:44:29.284Z,9.52
2023-01-06T22:46:55.332Z,10.21
2023-01-06T22:49:21.466Z,10.11
2023-01-06T22:51:47.566Z,10.14
2023-01-06T22:54:13.716Z,10.29
2023-01-06T22:56:41.735Z,10.01
2023-01-06T22:59:08.698Z,10.23
2023-01-06T23:01:34.825Z,10.14
2023-01-06T23:04:02.514Z,10.14
2023-01-06T23:06:28.804Z,10.09
2023-01-06T23:09:00.471Z,9.82
2023-01-06T23:11:28.400Z,9.98
2023-01-06T23:13:56.419Z,10.10
2023-01-06T23:16:25.452Z,10.01
2023-01-06T23:18:51.922Z,10.02
2023-01-06T23:21:23.567Z,9.06
2023-01-06T23:23:50.507Z,9.95
2023-01-06T23:26:19.696Z,10.03
2023-01-06T23:28:45.862Z,10.02
2023-01-06T23:31:14.440Z,8.16
2023-01-06T23:33:46.014Z,10.17
2023-01-06T23:36:14.097Z,10.06
2023-01-06T23:38:40.150Z,10.05
2023-01-06T23:41:08.835Z,8.71
2023-01-06T23:43:35.980Z,10.00
2023-01-06T23:46:04.493Z,9.91
2023-01-06T23:48:31.777Z,10.05
2023-01-06T23:50:58.266Z,9.67
2023-01-06T23:53:24.936Z,9.92
2023-01-06T23:56:00.819Z,10.04
2023-01-06T23:58:29.503Z,10.07
